sensor_id;sensor_type;location;lat;lon;timestamp;P1;durP1;ratioP1;P2;durP2;ratioP2
21430;SDS011;10876;49.038;10.608;2023-01-25T00:02:26;27.27;;;9.77;;
21430;SDS011;10876;49.038;10.608;2023-01-25T00:04:53;29.70;;;11.07;;
21430;SDS011;10876;49.038;10.608;2023-01-25T00:07:20;34.17;;;11.30;;
21430;SDS011;10876;49.038;10.608;2023-01-25T00:09:47;29.08;;;10.93;;
21430;SDS011;10876;49.038;10.608;2023-01-25T00:12:13;25.02;;;9.52;;
21430;SDS011;10876;49.038;10.608;2023-01-25T00:14:45;26.58;;;9.82;;
21430;SDS011;10876;49.038;10.608;2023-01-25T00:17:12;35.40;;;10.93;;
21430;SDS011;10876;49.038;10.608;2023-01-25T00:19:41;30.83;;;10.98;;
21430;SDS011;10876;49.038;10.608;2023-01-25T00:22:07;28.70;;;10.85;;
21430;SDS011;10876;49.038;10.608;2023-01-25T00:24:35;30.48;;;11.35;;
21430;SDS011;10876;49.038;10.608;2023-01-25T00:27:13;30.80;;;11.38;;
21430;SDS011;10876;49.038;10.608;2023-01-25T00:29:39;29.17;;;11.07;;
21430;SDS011;10876;49.038;10.608;2023-01-25T00:34:51;29.27;;;10.80;;
21430;SDS011;10876;49.038;10.608;2023-01-25T00:37:18;27.55;;;10.52;;
21430;SDS011;10876;49.038;10.608;2023-01-25T00:39:46;31.73;;;11.65;;
21430;SDS011;10876;49.038;10.608;2023-01-25T00:42:12;25.80;;;10.35;;
21430;SDS011;10876;49.038;10.608;2023-01-25T00:44:39;31.85;;;10.90;;
21430;SDS011;10876;49.038;10.608;2023-01-25T00:47:06;28.83;;;11.30;;
21430;SDS011;10876;49.038;10.608;2023-01-25T00:49:33;31.17;;;9.90;;
21430;SDS011;10876;49.038;10.608;2023-01-25T00:52:01;29.02;;;9.80;;
21430;SDS011;10876;49.038;10.608;2023-01-25T00:54:27;25.88;;;9.65;;
21430;SDS011;10876;49.038;10.608;2023-01-25T00:56:54;21.52;;;9.00;;
21430;SDS011;10876;49.038;10.608;2023-01-25T00:59:21;23.17;;;9.20;;
21430;SDS011;10876;49.038;10.608;2023-01-25T01:01:48;26.02;;;9.75;;
21430;SDS011;10876;49.038;10.608;2023-01-25T01:04:15;25.60;;;9.43;;
21430;SDS011;10876;49.038;10.608;2023-01-25T01:06:42;27.25;;;9.82;;
21430;SDS011;10876;49.038;10.608;2023-01-25T01:09:12;25.58;;;9.45;;
21430;SDS011;10876;49.038;10.608;2023-01-25T01:11:38;25.52;;;9.70;;
21430;SDS011;10876;49.038;10.608;2023-01-25T01:14:05;24.38;;;9.10;;
21430;SDS011;10876;49.038;10.608;2023-01-25T01:16:32;23.70;;;9.75;;
21430;SDS011;10876;49.038;10.608;2023-01-25T01:18:59;25.38;;;8.93;;
21430;SDS011;10876;49.038;10.608;2023-01-25T01:21:25;28.15;;;10.98;;
21430;SDS011;10876;49.038;10.608;2023-01-25T01:23:52;21.83;;;9.80;;
21430;SDS011;10876;49.038;10.608;2023-01-25T01:26:20;25.30;;;9.45;;
21430;SDS011;10876;49.038;10.608;2023-01-25T01:28:47;23.08;;;8.82;;
21430;SDS011;10876;49.038;10.608;2023-01-25T01:31:15;23.17;;;8.93;;
21430;SDS011;10876;49.038;10.608;2023-01-25T01:33:41;23.95;;;9.50;;
21430;SDS011;10876;49.038;10.608;2023-01-25T01:36:09;27.55;;;9.73;;
21430;SDS011;10876;49.038;10.608;2023-01-25T01:38:36;20.52;;;8.10;;
21430;SDS011;10876;49.038;10.608;2023-01-25T01:41:02;21.05;;;9.10;;
21430;SDS011;10876;49.038;10.608;2023-01-25T01:43:31;19.55;;;8.00;;
21430;SDS011;10876;49.038;10.608;2023-01-25T01:45:58;18.02;;;7.63;;
21430;SDS011;10876;49.038;10.608;2023-01-25T01:48:29;14.15;;;6.47;;
21430;SDS011;10876;49.038;10.608;2023-01-25T01:50:58;14.75;;;6.90;;
21430;SDS011;10876;49.038;10.608;2023-01-25T01:53:25;20.08;;;7.30;;
21430;SDS011;10876;49.038;10.608;2023-01-25T01:55:53;16.63;;;6.65;;
21430;SDS011;10876;49.038;10.608;2023-01-25T01:58:22;13.63;;;6.45;;
21430;SDS011;10876;49.038;10.608;2023-01-25T02:00:50;12.55;;;5.78;;
21430;SDS011;10876;49.038;10.608;2023-01-25T02:03:17;13.43;;;5.93;;
21430;SDS011;10876;49.038;10.608;2023-01-25T02:05:45;13.25;;;6.20;;
21430;SDS011;10876;49.038;10.608;2023-01-25T02:08:13;16.10;;;6.50;;
21430;SDS011;10876;49.038;10.608;2023-01-25T02:10:41;13.90;;;6.18;;
21430;SDS011;10876;49.038;10.608;2023-01-25T02:13:08;15.45;;;6.22;;
21430;SDS011;10876;49.038;10.608;2023-01-25T02:15:36;17.17;;;7.20;;
21430;SDS011;10876;49.038;10.608;2023-01-25T02:18:05;14.00;;;6.50;;
21430;SDS011;10876;49.038;10.608;2023-01-25T02:20:33;13.85;;;6.30;;
21430;SDS011;10876;49.038;10.608;2023-01-25T02:23:02;14.27;;;5.60;;
21430;SDS011;10876;49.038;10.608;2023-01-25T02:25:33;16.65;;;6.47;;
21430;SDS011;10876;49.038;10.608;2023-01-25T02:28:00;16.70;;;7.28;;
21430;SDS011;10876;49.038;10.608;2023-01-25T02:30:30;11.40;;;6.55;;
21430;SDS011;10876;49.038;10.608;2023-01-25T02:32:57;17.70;;;6.90;;
21430;SDS011;10876;49.038;10.608;2023-01-25T02:35:24;13.93;;;6.47;;
21430;SDS011;10876;49.038;10.608;2023-01-25T02:38:01;19.55;;;7.05;;
21430;SDS011;10876;49.038;10.608;2023-01-25T02:40:28;16.42;;;6.82;;
21430;SDS011;10876;49.038;10.608;2023-01-25T02:42:57;14.20;;;6.05;;
21430;SDS011;10876;49.038;10.608;2023-01-25T02:45:24;17.20;;;5.85;;
21430;SDS011;10876;49.038;10.608;2023-01-25T02:47:52;11.95;;;5.07;;
21430;SDS011;10876;49.038;10.608;2023-01-25T02:50:19;11.07;;;5.80;;
21430;SDS011;10876;49.038;10.608;2023-01-25T02:52:46;11.55;;;5.75;;
21430;SDS011;10876;49.038;10.608;2023-01-25T02:55:12;11.15;;;4.90;;
21430;SDS011;10876;49.038;10.608;2023-01-25T02:57:39;13.65;;;5.80;;
21430;SDS011;10876;49.038;10.608;2023-01-25T03:00:08;13.88;;;5.13;;
21430;SDS011;10876;49.038;10.608;2023-01-25T03:02:35;14.20;;;6.00;;
21430;SDS011;10876;49.038;10.608;2023-01-25T03:05:02;15.23;;;4.88;;
21430;SDS011;10876;49.038;10.608;2023-01-25T03:07:28;11.20;;;5.57;;
21430;SDS011;10876;49.038;10.608;2023-01-25T03:09:55;14.57;;;6.00;;
21430;SDS011;10876;49.038;10.608;2023-01-25T03:12:22;10.48;;;5.10;;
21430;SDS011;10876;49.038;10.608;2023-01-25T03:14:48;10.77;;;5.13;;
21430;SDS011;10876;49.038;10.608;2023-01-25T03:17:16;13.02;;;5.25;;
21430;SDS011;10876;49.038;10.608;2023-01-25T03:19:43;11.23;;;4.90;;
21430;SDS011;10876;49.038;10.608;2023-01-25T03:22:10;8.98;;;4.53;;
21430;SDS011;10876;49.038;10.608;2023-01-25T03:24:36;11.23;;;4.78;;
21430;SDS011;10876;49.038;10.608;2023-01-25T03:27:03;9.82;;;4.75;;
21430;SDS011;10876;49.038;10.608;2023-01-25T03:29:41;7.82;;;4.50;;
21430;SDS011;10876;49.038;10.608;2023-01-25T03:32:08;8.93;;;4.15;;
21430;SDS011;10876;49.038;10.608;2023-01-25T03:34:36;9.23;;;3.97;;
21430;SDS011;10876;49.038;10.608;2023-01-25T03:37:02;9.88;;;4.32;;
21430;SDS011;10876;49.038;10.608;2023-01-25T03:39:29;11.02;;;4.13;;
21430;SDS011;10876;49.038;10.608;2023-01-25T03:41:56;9.45;;;4.47;;
21430;SDS011;10876;49.038;10.608;2023-01-25T03:44:22;9.45;;;4.13;;
21430;SDS011;10876;49.038;10.608;2023-01-25T03:46:49;9.88;;;5.00;;
21430;SDS011;10876;49.038;10.608;2023-01-25T03:49:16;10.77;;;4.82;;
21430;SDS011;10876;49.038;10.608;2023-01-25T03:51:44;11.63;;;5.50;;
21430;SDS011;10876;49.038;10.608;2023-01-25T03:54:11;6.47;;;3.35;;
21430;SDS011;10876;49.038;10.608;2023-01-25T03:56:37;11.13;;;4.63;;
21430;SDS011;10876;49.038;10.608;2023-01-25T03:59:04;9.18;;;4.97;;
21430;SDS011;10876;49.038;10.608;2023-01-25T04:01:31;12.82;;;5.28;;
21430;SDS011;10876;49.038;10.608;2023-01-25T04:03:57;11.15;;;4.95;;
21430;SDS011;10876;49.038;10.608;2023-01-25T04:06:24;10.32;;;4.55;;
21430;SDS011;10876;49.038;10.608;2023-01-25T04:08:52;10.07;;;4.60;;
21430;SDS011;10876;49.038;10.608;2023-01-25T04:11:18;11.10;;;4.90;;
21430;SDS011;10876;49.038;10.608;2023-01-25T04:13:45;12.60;;;5.50;;
21430;SDS011;10876;49.038;10.608;2023-01-25T04:16:12;10.38;;;4.80;;
21430;SDS011;10876;49.038;10.608;2023-01-25T04:18:38;10.90;;;4.60;;
21430;SDS011;10876;49.038;10.608;2023-01-25T04:21:05;12.30;;;5.15;;
21430;SDS011;10876;49.038;10.608;2023-01-25T04:23:32;11.55;;;4.38;;
21430;SDS011;10876;49.038;10.608;2023-01-25T04:26:00;16.52;;;5.20;;
21430;SDS011;10876;49.038;10.608;2023-01-25T04:28:29;12.57;;;4.97;;
21430;SDS011;10876;49.038;10.608;2023-01-25T04:30:56;10.35;;;4.78;;
21430;SDS011;10876;49.038;10.608;2023-01-25T04:33:23;11.00;;;5.28;;
21430;SDS011;10876;49.038;10.608;2023-01-25T04:35:50;12.35;;;5.57;;
21430;SDS011;10876;49.038;10.608;2023-01-25T04:38:17;10.50;;;5.13;;
21430;SDS011;10876;49.038;10.608;2023-01-25T04:40:44;10.10;;;4.65;;
21430;SDS011;10876;49.038;10.608;2023-01-25T04:43:12;9.88;;;4.88;;
21430;SDS011;10876;49.038;10.608;2023-01-25T04:45:39;14.15;;;6.07;;
21430;SDS011;10876;49.038;10.608;2023-01-25T04:48:07;11.95;;;4.75;;
21430;SDS011;10876;49.038;10.608;2023-01-25T04:50:34;12.93;;;6.00;;
21430;SDS011;10876;49.038;10.608;2023-01-25T04:53:00;13.77;;;5.75;;
21430;SDS011;10876;49.038;10.608;2023-01-25T04:55:27;14.65;;;5.75;;
21430;SDS011;10876;49.038;10.608;2023-01-25T04:57:54;12.60;;;6.00;;
21430;SDS011;10876;49.038;10.608;2023-01-25T05:00:22;15.43;;;5.55;;
21430;SDS011;10876;49.038;10.608;2023-01-25T05:02:49;16.63;;;6.00;;
21430;SDS011;10876;49.038;10.608;2023-01-25T05:05:16;15.82;;;6.15;;
21430;SDS011;10876;49.038;10.608;2023-01-25T05:07:42;13.63;;;5.47;;
21430;SDS011;10876;49.038;10.608;2023-01-25T05:10:09;14.60;;;5.95;;
21430;SDS011;10876;49.038;10.608;2023-01-25T05:12:36;11.90;;;5.43;;
21430;SDS011;10876;49.038;10.608;2023-01-25T05:15:03;15.93;;;5.72;;
21430;SDS011;10876;49.038;10.608;2023-01-25T05:17:32;13.00;;;5.57;;
21430;SDS011;10876;49.038;10.608;2023-01-25T05:19:58;10.95;;;5.20;;
21430;SDS011;10876;49.038;10.608;2023-01-25T05:22:25;13.25;;;5.95;;
21430;SDS011;10876;49.038;10.608;2023-01-25T05:24:52;14.07;;;5.20;;
21430;SDS011;10876;49.038;10.608;2023-01-25T05:27:19;14.68;;;6.35;;
21430;SDS011;10876;49.038;10.608;2023-01-25T05:29:44;11.85;;;5.15;;
21430;SDS011;10876;49.038;10.608;2023-01-25T05:32:12;13.18;;;5.47;;
21430;SDS011;10876;49.038;10.608;2023-01-25T05:34:40;11.80;;;5.22;;
21430;SDS011;10876;49.038;10.608;2023-01-25T05:37:08;10.32;;;4.72;;
21430;SDS011;10876;49.038;10.608;2023-01-25T05:39:35;12.20;;;5.30;;
21430;SDS011;10876;49.038;10.608;2023-01-25T05:42:01;13.27;;;5.30;;
21430;SDS011;10876;49.038;10.608;2023-01-25T05:44:28;15.05;;;5.82;;
21430;SDS011;10876;49.038;10.608;2023-01-25T05:46:55;14.40;;;5.57;;
21430;SDS011;10876;49.038;10.608;2023-01-25T05:49:21;11.57;;;5.32;;
21430;SDS011;10876;49.038;10.608;2023-01-25T05:51:49;12.38;;;6.22;;
21430;SDS011;10876;49.038;10.608;2023-01-25T05:54:16;13.55;;;5.40;;
21430;SDS011;10876;49.038;10.608;2023-01-25T05:56:43;11.30;;;5.40;;
21430;SDS011;10876;49.038;10.608;2023-01-25T05:59:10;15.18;;;5.63;;
21430;SDS011;10876;49.038;10.608;2023-01-25T06:01:37;13.07;;;5.72;;
21430;SDS011;10876;49.038;10.608;2023-01-25T06:04:04;15.40;;;6.57;;
21430;SDS011;10876;49.038;10.608;2023-01-25T06:06:31;14.95;;;6.35;;
21430;SDS011;10876;49.038;10.608;2023-01-25T06:08:59;13.63;;;6.20;;
21430;SDS011;10876;49.038;10.608;2023-01-25T06:11:26;15.50;;;6.63;;
21430;SDS011;10876;49.038;10.608;2023-01-25T06:13:52;13.82;;;6.55;;
21430;SDS011;10876;49.038;10.608;2023-01-25T06:16:19;21.38;;;7.32;;
21430;SDS011;10876;49.038;10.608;2023-01-25T06:18:46;13.88;;;6.07;;
21430;SDS011;10876;49.038;10.608;2023-01-25T06:21:12;11.40;;;5.38;;
21430;SDS011;10876;49.038;10.608;2023-01-25T06:23:39;13.00;;;5.97;;
21430;SDS011;10876;49.038;10.608;2023-01-25T06:26:09;15.77;;;5.88;;
21430;SDS011;10876;49.038;10.608;2023-01-25T06:28:36;15.35;;;6.18;;
21430;SDS011;10876;49.038;10.608;2023-01-25T06:31:04;13.82;;;5.97;;
21430;SDS011;10876;49.038;10.608;2023-01-25T06:33:30;13.85;;;5.60;;
21430;SDS011;10876;49.038;10.608;2023-01-25T06:35:58;12.23;;;5.85;;
21430;SDS011;10876;49.038;10.608;2023-01-25T06:38:25;16.15;;;5.78;;
21430;SDS011;10876;49.038;10.608;2023-01-25T06:40:51;14.02;;;5.97;;
21430;SDS011;10876;49.038;10.608;2023-01-25T06:43:20;13.77;;;5.60;;
21430;SDS011;10876;49.038;10.608;2023-01-25T06:45:46;14.13;;;6.03;;
21430;SDS011;10876;49.038;10.608;2023-01-25T06:48:13;10.93;;;4.90;;
21430;SDS011;10876;49.038;10.608;2023-01-25T06:50:39;15.23;;;5.95;;
21430;SDS011;10876;49.038;10.608;2023-01-25T06:53:06;13.38;;;5.88;;
21430;SDS011;10876;49.038;10.608;2023-01-25T06:55:33;13.57;;;5.85;;
21430;SDS011;10876;49.038;10.608;2023-01-25T06:58:00;13.25;;;5.50;;
21430;SDS011;10876;49.038;10.608;2023-01-25T07:00:28;13.32;;;5.80;;
21430;SDS011;10876;49.038;10.608;2023-01-25T07:02:54;12.68;;;5.80;;
21430;SDS011;10876;49.038;10.608;2023-01-25T07:05:21;15.52;;;6.43;;
21430;SDS011;10876;49.038;10.608;2023-01-25T07:07:49;13.52;;;6.60;;
21430;SDS011;10876;49.038;10.608;2023-01-25T07:10:16;13.98;;;5.53;;
21430;SDS011;10876;49.038;10.608;2023-01-25T07:12:42;14.90;;;5.85;;
21430;SDS011;10876;49.038;10.608;2023-01-25T07:15:09;13.50;;;5.80;;
21430;SDS011;10876;49.038;10.608;2023-01-25T07:17:37;12.70;;;5.40;;
21430;SDS011;10876;49.038;10.608;2023-01-25T07:20:04;13.70;;;5.93;;
21430;SDS011;10876;49.038;10.608;2023-01-25T07:22:32;17.13;;;5.82;;
21430;SDS011;10876;49.038;10.608;2023-01-25T07:24:59;17.20;;;6.60;;
21430;SDS011;10876;49.038;10.608;2023-01-25T07:27:26;17.75;;;6.15;;
21430;SDS011;10876;49.038;10.608;2023-01-25T07:29:53;12.70;;;5.75;;
21430;SDS011;10876;49.038;10.608;2023-01-25T07:32:20;15.57;;;6.63;;
21430;SDS011;10876;49.038;10.608;2023-01-25T07:34:48;11.27;;;6.10;;
21430;SDS011;10876;49.038;10.608;2023-01-25T07:37:14;15.48;;;6.97;;
21430;SDS011;10876;49.038;10.608;2023-01-25T07:39:41;11.98;;;6.22;;
21430;SDS011;10876;49.038;10.608;2023-01-25T07:42:12;13.95;;;6.00;;
21430;SDS011;10876;49.038;10.608;2023-01-25T07:44:39;13.32;;;5.68;;
21430;SDS011;10876;49.038;10.608;2023-01-25T07:47:06;14.57;;;6.20;;
21430;SDS011;10876;49.038;10.608;2023-01-25T07:49:32;15.02;;;6.47;;
21430;SDS011;10876;49.038;10.608;2023-01-25T07:52:01;11.55;;;5.53;;
21430;SDS011;10876;49.038;10.608;2023-01-25T07:54:27;16.80;;;6.38;;
21430;SDS011;10876;49.038;10.608;2023-01-25T07:56:54;15.32;;;6.70;;
21430;SDS011;10876;49.038;10.608;2023-01-25T07:59:22;12.48;;;5.88;;
21430;SDS011;10876;49.038;10.608;2023-01-25T08:01:49;12.18;;;5.65;;
21430;SDS011;10876;49.038;10.608;2023-01-25T08:04:17;16.80;;;6.82;;
21430;SDS011;10876;49.038;10.608;2023-01-25T08:06:44;13.30;;;6.22;;
21430;SDS011;10876;49.038;10.608;2023-01-25T08:09:13;13.05;;;6.22;;
21430;SDS011;10876;49.038;10.608;2023-01-25T08:11:40;15.00;;;6.18;;
21430;SDS011;10876;49.038;10.608;2023-01-25T08:14:07;17.05;;;6.93;;
21430;SDS011;10876;49.038;10.608;2023-01-25T08:16:35;18.35;;;6.40;;
21430;SDS011;10876;49.038;10.608;2023-01-25T08:19:02;16.75;;;6.97;;
21430;SDS011;10876;49.038;10.608;2023-01-25T08:21:30;21.65;;;7.35;;
21430;SDS011;10876;49.038;10.608;2023-01-25T08:23:56;14.07;;;6.45;;
21430;SDS011;10876;49.038;10.608;2023-01-25T08:26:25;13.85;;;6.63;;
21430;SDS011;10876;49.038;10.608;2023-01-25T08:28:52;17.50;;;6.65;;
21430;SDS011;10876;49.038;10.608;2023-01-25T08:31:20;16.08;;;6.60;;
21430;SDS011;10876;49.038;10.608;2023-01-25T08:33:47;15.95;;;6.68;;
21430;SDS011;10876;49.038;10.608;2023-01-25T08:36:14;18.73;;;7.38;;
21430;SDS011;10876;49.038;10.608;2023-01-25T08:38:41;15.05;;;6.50;;
21430;SDS011;10876;49.038;10.608;2023-01-25T08:41:08;15.63;;;6.43;;
21430;SDS011;10876;49.038;10.608;2023-01-25T08:43:37;16.17;;;6.60;;
21430;SDS011;10876;49.038;10.608;2023-01-25T08:46:04;15.35;;;6.95;;
21430;SDS011;10876;49.038;10.608;2023-01-25T08:48:31;14.05;;;6.55;;
21430;SDS011;10876;49.038;10.608;2023-01-25T08:50:58;15.52;;;6.90;;
21430;SDS011;10876;49.038;10.608;2023-01-25T08:53:26;20.60;;;7.30;;
21430;SDS011;10876;49.038;10.608;2023-01-25T08:55:52;15.00;;;6.47;;
21430;SDS011;10876;49.038;10.608;2023-01-25T08:58:19;15.40;;;7.05;;
21430;SDS011;10876;49.038;10.608;2023-01-25T09:00:48;16.92;;;6.88;;
21430;SDS011;10876;49.038;10.608;2023-01-25T09:03:14;19.08;;;7.25;;
21430;SDS011;10876;49.038;10.608;2023-01-25T09:05:42;17.40;;;6.40;;
21430;SDS011;10876;49.038;10.608;2023-01-25T09:08:08;16.13;;;6.38;;
21430;SDS011;10876;49.038;10.608;2023-01-25T09:10:35;13.70;;;6.90;;
21430;SDS011;10876;49.038;10.608;2023-01-25T09:13:02;19.17;;;7.43;;
21430;SDS011;10876;49.038;10.608;2023-01-25T09:15:28;15.15;;;6.85;;
21430;SDS011;10876;49.038;10.608;2023-01-25T09:17:56;13.70;;;6.45;;
21430;SDS011;10876;49.038;10.608;2023-01-25T09:20:23;17.23;;;7.30;;
21430;SDS011;10876;49.038;10.608;2023-01-25T09:22:50;15.30;;;7.05;;
21430;SDS011;10876;49.038;10.608;2023-01-25T09:25:17;13.43;;;6.15;;
21430;SDS011;10876;49.038;10.608;2023-01-25T09:27:43;18.25;;;6.07;;
21430;SDS011;10876;49.038;10.608;2023-01-25T09:30:10;15.02;;;7.05;;
21430;SDS011;10876;49.038;10.608;2023-01-25T09:32:37;20.55;;;7.47;;
21430;SDS011;10876;49.038;10.608;2023-01-25T09:35:06;12.68;;;5.55;;
21430;SDS011;10876;49.038;10.608;2023-01-25T09:37:33;15.77;;;6.60;;
21430;SDS011;10876;49.038;10.608;2023-01-25T09:39:59;15.40;;;6.22;;
21430;SDS011;10876;49.038;10.608;2023-01-25T09:45:20;16.02;;;6.60;;
21430;SDS011;10876;49.038;10.608;2023-01-25T09:47:50;17.80;;;7.15;;
21430;SDS011;10876;49.038;10.608;2023-01-25T09:50:31;22.92;;;7.72;;
21430;SDS011;10876;49.038;10.608;2023-01-25T09:53:03;16.45;;;6.38;;
21430;SDS011;10876;49.038;10.608;2023-01-25T09:55:31;15.10;;;6.72;;
21430;SDS011;10876;49.038;10.608;2023-01-25T09:57:59;12.68;;;6.22;;
21430;SDS011;10876;49.038;10.608;2023-01-25T10:00:27;18.40;;;7.40;;
21430;SDS011;10876;49.038;10.608;2023-01-25T10:02:56;16.40;;;6.95;;
21430;SDS011;10876;49.038;10.608;2023-01-25T10:05:27;17.13;;;7.05;;
21430;SDS011;10876;49.038;10.608;2023-01-25T10:07:58;13.38;;;7.10;;
21430;SDS011;10876;49.038;10.608;2023-01-25T10:10:28;17.08;;;6.38;;
21430;SDS011;10876;49.038;10.608;2023-01-25T10:12:56;16.38;;;7.18;;
21430;SDS011;10876;49.038;10.608;2023-01-25T10:15:25;18.38;;;7.10;;
21430;SDS011;10876;49.038;10.608;2023-01-25T10:17:55;16.50;;;7.25;;
21430;SDS011;10876;49.038;10.608;2023-01-25T10:20:27;17.40;;;7.00;;
21430;SDS011;10876;49.038;10.608;2023-01-25T10:23:03;13.93;;;6.47;;
21430;SDS011;10876;49.038;10.608;2023-01-25T10:25:33;17.85;;;6.90;;
21430;SDS011;10876;49.038;10.608;2023-01-25T10:28:04;14.35;;;6.30;;
21430;SDS011;10876;49.038;10.608;2023-01-25T10:30:35;15.20;;;7.10;;
21430;SDS011;10876;49.038;10.608;2023-01-25T10:33:08;15.90;;;7.05;;
21430;SDS011;10876;49.038;10.608;2023-01-25T10:35:36;18.90;;;6.90;;
21430;SDS011;10876;49.038;10.608;2023-01-25T10:38:06;14.55;;;6.28;;
21430;SDS011;10876;49.038;10.608;2023-01-25T10:40:38;14.82;;;7.07;;
21430;SDS011;10876;49.038;10.608;2023-01-25T10:43:06;14.55;;;6.90;;
21430;SDS011;10876;49.038;10.608;2023-01-25T10:45:36;17.65;;;6.80;;
21430;SDS011;10876;49.038;10.608;2023-01-25T10:48:05;15.50;;;7.30;;
21430;SDS011;10876;49.038;10.608;2023-01-25T10:53:25;16.20;;;7.53;;
21430;SDS011;10876;49.038;10.608;2023-01-25T10:56:03;19.05;;;6.93;;
21430;SDS011;10876;49.038;10.608;2023-01-25T10:58:32;15.75;;;7.15;;
21430;SDS011;10876;49.038;10.608;2023-01-25T11:00:59;17.23;;;7.05;;
21430;SDS011;10876;49.038;10.608;2023-01-25T11:03:32;15.77;;;6.65;;
21430;SDS011;10876;49.038;10.608;2023-01-25T11:05:59;15.95;;;6.72;;
21430;SDS011;10876;49.038;10.608;2023-01-25T11:08:31;15.55;;;6.85;;
21430;SDS011;10876;49.038;10.608;2023-01-25T11:10:58;20.13;;;7.38;;
21430;SDS011;10876;49.038;10.608;2023-01-25T11:13:25;19.42;;;8.90;;
21430;SDS011;10876;49.038;10.608;2023-01-25T11:15:53;18.25;;;7.97;;
21430;SDS011;10876;49.038;10.608;2023-01-25T11:18:21;19.60;;;7.68;;
21430;SDS011;10876;49.038;10.608;2023-01-25T11:20:49;18.48;;;7.40;;
21430;SDS011;10876;49.038;10.608;2023-01-25T11:23:28;21.30;;;7.80;;
21430;SDS011;10876;49.038;10.608;2023-01-25T11:26:00;18.80;;;7.05;;
21430;SDS011;10876;49.038;10.608;2023-01-25T11:28:36;18.65;;;7.03;;
21430;SDS011;10876;49.038;10.608;2023-01-25T11:31:02;12.98;;;6.03;;
21430;SDS011;10876;49.038;10.608;2023-01-25T11:33:30;15.10;;;6.80;;
21430;SDS011;10876;49.038;10.608;2023-01-25T11:36:04;15.02;;;6.63;;
21430;SDS011;10876;49.038;10.608;2023-01-25T11:38:32;17.98;;;7.15;;
21430;SDS011;10876;49.038;10.608;2023-01-25T11:41:03;17.70;;;7.60;;
21430;SDS011;10876;49.038;10.608;2023-01-25T11:43:43;15.63;;;7.03;;
21430;SDS011;10876;49.038;10.608;2023-01-25T11:46:15;19.35;;;6.97;;
21430;SDS011;10876;49.038;10.608;2023-01-25T11:48:52;15.30;;;6.50;;
21430;SDS011;10876;49.038;10.608;2023-01-25T11:51:21;16.23;;;6.72;;
21430;SDS011;10876;49.038;10.608;2023-01-25T11:56:46;17.60;;;7.20;;
21430;SDS011;10876;49.038;10.608;2023-01-25T11:59:21;15.43;;;5.95;;
21430;SDS011;10876;49.038;10.608;2023-01-25T12:01:56;18.83;;;7.78;;
21430;SDS011;10876;49.038;10.608;2023-01-25T12:04:32;15.73;;;7.32;;
21430;SDS011;10876;49.038;10.608;2023-01-25T12:07:02;15.75;;;7.00;;
21430;SDS011;10876;49.038;10.608;2023-01-25T12:09:36;18.52;;;7.45;;
21430;SDS011;10876;49.038;10.608;2023-01-25T12:12:10;16.05;;;6.28;;
21430;SDS011;10876;49.038;10.608;2023-01-25T12:14:48;14.98;;;6.35;;
21430;SDS011;10876;49.038;10.608;2023-01-25T12:17:22;19.17;;;7.07;;
21430;SDS011;10876;49.038;10.608;2023-01-25T12:19:59;17.58;;;6.50;;
21430;SDS011;10876;49.038;10.608;2023-01-25T12:22:37;16.02;;;6.78;;
21430;SDS011;10876;49.038;10.608;2023-01-25T12:25:08;18.25;;;7.47;;
21430;SDS011;10876;49.038;10.608;2023-01-25T12:27:44;16.52;;;6.47;;
21430;SDS011;10876;49.038;10.608;2023-01-25T12:30:19;14.13;;;6.20;;
21430;SDS011;10876;49.038;10.608;2023-01-25T12:32:48;14.80;;;6.47;;
21430;SDS011;10876;49.038;10.608;2023-01-25T12:35:21;15.48;;;6.78;;
21430;SDS011;10876;49.038;10.608;2023-01-25T12:37:50;15.57;;;6.47;;
21430;SDS011;10876;49.038;10.608;2023-01-25T12:40:19;16.02;;;6.13;;
21430;SDS011;10876;49.038;10.608;2023-01-25T12:42:49;16.88;;;6.28;;
21430;SDS011;10876;49.038;10.608;2023-01-25T12:45:18;12.93;;;6.53;;
21430;SDS011;10876;49.038;10.608;2023-01-25T12:47:47;13.73;;;5.93;;
21430;SDS011;10876;49.038;10.608;2023-01-25T12:50:15;17.45;;;5.78;;
21430;SDS011;10876;49.038;10.608;2023-01-25T12:52:44;15.77;;;6.10;;
21430;SDS011;10876;49.038;10.608;2023-01-25T12:55:13;15.07;;;6.28;;
21430;SDS011;10876;49.038;10.608;2023-01-25T12:57:41;15.57;;;6.40;;
21430;SDS011;10876;49.038;10.608;2023-01-25T13:00:15;17.23;;;6.20;;
21430;SDS011;10876;49.038;10.608;2023-01-25T13:02:49;18.27;;;6.75;;
21430;SDS011;10876;49.038;10.608;2023-01-25T13:05:21;12.75;;;5.45;;
21430;SDS011;10876;49.038;10.608;2023-01-25T13:07:51;13.35;;;5.28;;
21430;SDS011;10876;49.038;10.608;2023-01-25T13:10:21;10.98;;;5.57;;
21430;SDS011;10876;49.038;10.608;2023-01-25T13:12:52;13.18;;;5.18;;
21430;SDS011;10876;49.038;10.608;2023-01-25T13:15:37;18.92;;;6.25;;
21430;SDS011;10876;49.038;10.608;2023-01-25T13:20:50;13.60;;;5.80;;
21430;SDS011;10876;49.038;10.608;2023-01-25T13:23:29;11.80;;;5.57;;
21430;SDS011;10876;49.038;10.608;2023-01-25T13:28:41;13.52;;;5.32;;
21430;SDS011;10876;49.038;10.608;2023-01-25T13:31:10;16.30;;;5.78;;
21430;SDS011;10876;49.038;10.608;2023-01-25T13:33:57;12.32;;;5.22;;
21430;SDS011;10876;49.038;10.608;2023-01-25T13:36:37;13.60;;;5.18;;
21430;SDS011;10876;49.038;10.608;2023-01-25T13:42:03;13.35;;;5.70;;
21430;SDS011;10876;49.038;10.608;2023-01-25T13:44:31;15.23;;;5.57;;
21430;SDS011;10876;49.038;10.608;2023-01-25T13:47:01;16.98;;;6.57;;
21430;SDS011;10876;49.038;10.608;2023-01-25T13:49:30;17.15;;;6.03;;
21430;SDS011;10876;49.038;10.608;2023-01-25T13:51:57;13.98;;;6.00;;
21430;SDS011;10876;49.038;10.608;2023-01-25T13:54:24;15.63;;;5.93;;
21430;SDS011;10876;49.038;10.608;2023-01-25T13:57:01;13.93;;;5.63;;
21430;SDS011;10876;49.038;10.608;2023-01-25T13:59:28;15.80;;;6.03;;
21430;SDS011;10876;49.038;10.608;2023-01-25T14:01:55;12.60;;;5.55;;
21430;SDS011;10876;49.038;10.608;2023-01-25T14:04:24;11.60;;;5.30;;
21430;SDS011;10876;49.038;10.608;2023-01-25T14:06:54;10.43;;;4.40;;
21430;SDS011;10876;49.038;10.608;2023-01-25T14:09:21;16.95;;;6.85;;
21430;SDS011;10876;49.038;10.608;2023-01-25T14:11:49;13.55;;;4.93;;
21430;SDS011;10876;49.038;10.608;2023-01-25T14:14:19;14.40;;;5.85;;
21430;SDS011;10876;49.038;10.608;2023-01-25T14:16:59;12.73;;;5.13;;
21430;SDS011;10876;49.038;10.608;2023-01-25T14:19:28;12.50;;;5.65;;
21430;SDS011;10876;49.038;10.608;2023-01-25T14:22:11;14.75;;;5.28;;
21430;SDS011;10876;49.038;10.608;2023-01-25T14:24:38;15.75;;;5.65;;
21430;SDS011;10876;49.038;10.608;2023-01-25T14:27:05;13.52;;;5.90;;
21430;SDS011;10876;49.038;10.608;2023-01-25T14:29:32;15.05;;;5.80;;
21430;SDS011;10876;49.038;10.608;2023-01-25T14:31:59;15.20;;;5.32;;
21430;SDS011;10876;49.038;10.608;2023-01-25T14:34:27;18.10;;;6.45;;
21430;SDS011;10876;49.038;10.608;2023-01-25T14:37:03;8.48;;;3.92;;
21430;SDS011;10876;49.038;10.608;2023-01-25T14:39:31;14.25;;;5.55;;
21430;SDS011;10876;49.038;10.608;2023-01-25T14:41:58;10.90;;;4.97;;
21430;SDS011;10876;49.038;10.608;2023-01-25T14:44:25;18.75;;;6.15;;
21430;SDS011;10876;49.038;10.608;2023-01-25T14:49:36;14.10;;;5.57;;
21430;SDS011;10876;49.038;10.608;2023-01-25T14:52:03;15.45;;;5.82;;